Time;durP1;ratioP1;P1;durP2;ratioP2;P2;SDS_P1;SDS_P2;PMS_P1;PMS_P2;Temp;Humidity;BMP_temperature;BMP_pressure;BME280_temperature;BME280_humidity;BME280_pressure;Samples;Min_cycle;Max_cycle;Signal;HPM_P1;HPM_P2
2022/03/06 00:02:04;;;;;;;34.53;21.52;;;;;;;-0.47;68.61;101095.56;5083622;28;20524;-63
2022/03/06 00:04:32;;;;;;;34.70;22.17;;;;;;;-0.48;68.68;101098.25;5084567;28;20194;-62
2022/03/06 00:07:00;;;;;;;35.00;22.93;;;;;;;-0.49;68.62;101097.34;5083482;28;20455;-64
2022/03/06 00:09:27;;;;;;;33.15;22.67;;;;;;;-0.51;68.81;101098.34;5091975;28;20525;-64
2022/03/06 00:11:54;;;;;;;32.45;21.27;;;;;;;-0.53;68.58;101089.66;5102373;28;20768;-63
2022/03/06 00:14:21;;;;;;;36.03;22.20;;;;;;;-0.55;68.37;101097.56;5083126;28;20861;-63
2022/03/06 00:16:48;;;;;;;33.73;22.07;;;;;;;-0.61;68.59;101093.38;5083036;28;20221;-63
2022/03/06 00:19:15;;;;;;;35.20;21.67;;;;;;;-0.55;68.90;101101.97;5084596;28;20455;-63
2022/03/06 00:21:41;;;;;;;35.22;22.70;;;;;;;-0.57;69.09;101102.03;5082111;28;21212;-63
2022/03/06 00:24:09;;;;;;;30.17;20.30;;;;;;;-0.51;69.02;101100.97;5099998;28;20643;-63
2022/03/06 00:26:36;;;;;;;34.80;22.07;;;;;;;-0.50;68.96;101100.91;5097596;28;20239;-63
2022/03/06 00:29:03;;;;;;;31.38;21.02;;;;;;;-0.58;69.13;101100.28;5097373;28;20463;-63
2022/03/06 00:31:30;;;;;;;36.15;22.23;;;;;;;-0.64;69.34;101100.50;5075400;28;20636;-62
2022/03/06 00:33:56;;;;;;;35.58;21.13;;;;;;;-0.65;69.53;101109.28;5101785;28;20267;-64
2022/03/06 00:36:23;;;;;;;34.20;21.73;;;;;;;-0.64;69.45;101114.47;5099814;28;20209;-64
2022/03/06 00:38:50;;;;;;;34.00;21.90;;;;;;;-0.71;69.23;101109.44;5082817;28;20220;-64
2022/03/06 00:41:18;;;;;;;34.70;21.53;;;;;;;-0.79;69.19;101113.19;5062290;28;20532;-64
2022/03/06 00:43:45;;;;;;;33.17;22.05;;;;;;;-0.83;69.60;101106.31;5062591;28;20445;-64
2022/03/06 00:46:12;;;;;;;36.85;22.30;;;;;;;-0.81;69.75;101125.50;5072289;28;20222;-63
2022/03/06 00:48:38;;;;;;;31.20;21.27;;;;;;;-0.83;69.62;101119.44;5062711;28;20261;-64
2022/03/06 00:51:05;;;;;;;33.42;22.65;;;;;;;-0.85;69.60;101129.13;5061609;28;20487;-64
2022/03/06 00:53:31;;;;;;;38.75;22.80;;;;;;;-0.88;69.60;101137.09;5069075;28;20260;-64
2022/03/06 00:55:58;;;;;;;40.65;22.85;;;;;;;-0.92;69.58;101131.97;5069265;28;20245;-63
2022/03/06 00:58:26;;;;;;;37.50;23.80;;;;;;;-0.93;69.59;101125.88;5062993;28;20206;-64
2022/03/06 01:00:53;;;;;;;39.33;24.60;;;;;;;-0.93;69.94;101131.13;5067662;28;20213;-63
2022/03/06 01:03:21;;;;;;;36.80;22.20;;;;;;;-0.86;69.97;101129.19;5065242;28;20456;-64
2022/03/06 01:05:48;;;;;;;32.45;21.60;;;;;;;-0.84;69.84;101122.97;5076846;28;20256;-63
2022/03/06 01:08:15;;;;;;;30.25;20.98;;;;;;;-1.01;70.15;101123.47;5066231;28;20195;-63
2022/03/06 01:10:43;;;;;;;36.33;23.00;;;;;;;-0.98;70.45;101127.78;5074745;28;20206;-63
2022/03/06 01:13:10;;;;;;;33.47;21.90;;;;;;;-1.02;70.34;101129.63;5080655;28;20252;-63
2022/03/06 01:15:38;;;;;;;35.47;23.50;;;;;;;-0.99;70.37;101131.28;5071020;28;20219;-63
2022/03/06 01:18:06;;;;;;;30.35;20.23;;;;;;;-1.01;70.42;101138.34;5062788;28;20197;-63
2022/03/06 01:20:33;;;;;;;34.05;22.15;;;;;;;-0.97;70.53;101129.50;5064157;28;20253;-63
2022/03/06 01:23:00;;;;;;;35.63;22.48;;;;;;;-0.92;70.48;101132.84;5063560;28;20237;-63
2022/03/06 01:25:27;;;;;;;36.72;21.90;;;;;;;-0.90;70.39;101144.16;5078956;28;20231;-63
2022/03/06 01:27:54;;;;;;;36.42;22.92;;;;;;;-0.81;70.04;101150.91;5082232;28;20225;-63
2022/03/06 01:30:22;;;;;;;30.48;21.48;;;;;;;-0.79;69.66;101143.84;5055943;28;20306;-63
2022/03/06 01:32:50;;;;;;;39.33;22.52;;;;;;;-0.83;69.55;101145.69;5070465;28;20223;-62
2022/03/06 01:35:17;;;;;;;37.55;21.25;;;;;;;-0.80;69.64;101140.34;5073689;28;21153;-62
2022/03/06 01:37:43;;;;;;;33.72;22.80;;;;;;;-0.80;69.41;101142.97;5084511;28;20242;-62
2022/03/06 01:40:12;;;;;;;35.00;21.90;;;;;;;-0.75;69.52;101145.44;5083017;28;20205;-62
2022/03/06 01:42:40;;;;;;;36.15;22.65;;;;;;;-0.73;69.44;101143.63;5081849;28;20206;-63
2022/03/06 01:45:08;;;;;;;32.40;21.10;;;;;;;-0.71;68.76;101141.84;5083055;28;20262;-63
2022/03/06 01:47:36;;;;;;;35.25;22.52;;;;;;;-0.62;68.62;101140.69;5095961;28;20276;-63
2022/03/06 01:50:06;;;;;;;31.90;21.17;;;;;;;-0.68;68.84;101151.38;5092449;28;20194;-63
2022/03/06 01:52:32;;;;;;;33.75;22.58;;;;;;;-0.68;69.29;101146.13;5082204;28;20238;-63
2022/03/06 01:54:59;;;;;;;30.37;20.60;;;;;;;-0.64;69.45;101146.00;5099040;28;20223;-62
2022/03/06 01:57:27;;;;;;;33.60;21.65;;;;;;;-0.55;69.28;101151.88;5087375;28;20455;-62
2022/03/06 01:59:53;;;;;;;33.35;20.70;;;;;;;-0.53;69.02;101140.41;5102330;28;20189;-62
2022/03/06 02:02:20;;;;;;;33.85;21.88;;;;;;;-0.44;68.94;101140.09;5089316;28;20206;-63
2022/03/06 02:04:47;;;;;;;34.17;23.17;;;;;;;-0.44;69.05;101137.47;5095487;28;20201;-64
2022/03/06 02:07:16;;;;;;;31.30;20.53;;;;;;;-0.36;68.87;101142.50;5081777;28;20852;-64
2022/03/06 02:09:42;;;;;;;34.00;22.23;;;;;;;-0.35;68.79;101135.47;5082117;28;20440;-64
2022/03/06 02:12:26;;;;;;;33.63;22.80;;;;;;;-0.33;68.72;101133.66;5081071;28;20241;-64
2022/03/06 02:14:53;;;;;;;33.20;20.70;;;;;;;-0.29;68.92;101133.53;5093413;28;20193;-64
2022/03/06 02:17:20;;;;;;;40.00;21.93;;;;;;;-0.31;68.97;101137.09;5100627;28;20447;-63
2022/03/06 02:19:55;;;;;;;31.67;21.10;;;;;;;-0.29;68.69;101125.63;5084782;28;20444;-64
2022/03/06 02:22:25;;;;;;;31.37;21.83;;;;;;;-0.30;68.85;101130.94;5101477;28;20200;-64
2022/03/06 02:24:52;;;;;;;31.53;19.70;;;;;;;-0.26;68.71;101128.16;5092146;28;20955;-64
2022/03/06 02:27:19;;;;;;;35.93;21.50;;;;;;;-0.23;68.65;101129.81;5081069;28;20448;-64
2022/03/06 02:29:46;;;;;;;32.80;20.67;;;;;;;-0.23;68.77;101132.44;5091827;28;20447;-63
2022/03/06 02:32:14;;;;;;;35.75;21.95;;;;;;;-0.22;68.72;101123.66;5088147;28;20978;-63
2022/03/06 02:34:42;;;;;;;34.20;22.40;;;;;;;-0.25;68.45;101127.25;5097543;28;20236;-64
2022/03/06 02:37:09;;;;;;;32.63;19.90;;;;;;;-0.30;68.77;101128.31;5077538;28;20566;-64
2022/03/06 02:39:38;;;;;;;30.80;20.20;;;;;;;-0.32;69.01;101127.50;5081237;28;20436;-64
2022/03/06 02:42:05;;;;;;;42.43;22.27;;;;;;;-0.29;69.25;101133.53;5076656;28;20453;-64
2022/03/06 02:44:32;;;;;;;30.23;21.60;;;;;;;-0.24;69.54;101133.38;5068214;28;20444;-63
2022/03/06 02:46:59;;;;;;;30.17;20.90;;;;;;;-0.16;69.39;101125.22;5070609;28;20469;-64
2022/03/06 02:49:25;;;;;;;32.03;22.37;;;;;;;-0.03;68.71;101129.19;5060982;28;20198;-64
2022/03/06 02:51:52;;;;;;;37.37;22.27;;;;;;;0.02;68.68;101123.75;5061541;28;20993;-64
2022/03/06 02:54:20;;;;;;;32.73;21.30;;;;;;;0.07;68.16;101127.97;5063022;28;20507;-63
2022/03/06 02:56:49;;;;;;;31.93;21.80;;;;;;;-0.07;68.60;101117.91;5069289;28;20459;-63
2022/03/06 02:59:16;;;;;;;35.20;20.10;;;;;;;-0.09;68.98;101127.59;5067103;28;20445;-63
2022/03/06 03:01:42;;;;;;;36.80;22.17;;;;;;;-0.07;69.46;101120.53;5063295;28;20469;-63
2022/03/06 03:04:09;;;;;;;31.40;20.97;;;;;;;-0.05;69.15;101126.59;5063637;28;20848;-63
2022/03/06 03:06:36;;;;;;;34.10;19.53;;;;;;;0.00;68.93;101126.44;5081863;28;20428;-62
2022/03/06 03:09:04;;;;;;;32.90;21.50;;;;;;;-0.14;68.87;101123.41;5080954;28;20477;-63
2022/03/06 03:11:31;;;;;;;35.93;21.20;;;;;;;-0.16;69.33;101114.72;5081118;28;20451;-63
2022/03/06 03:13:59;;;;;;;34.13;20.77;;;;;;;-0.08;69.60;101125.84;5069092;28;20488;-63
2022/03/06 03:16:26;;;;;;;38.23;21.90;;;;;;;-0.08;69.19;101131.94;5061170;28;20871;-64
2022/03/06 03:18:53;;;;;;;30.40;20.63;;;;;;;0.05;69.12;101127.13;5064731;28;20451;-64
2022/03/06 03:21:20;;;;;;;30.87;20.50;;;;;;;-0.04;69.28;101117.78;5061462;28;20463;-64
2022/03/06 03:23:46;;;;;;;37.43;22.40;;;;;;;-0.10;69.52;101127.66;5062162;28;20483;-64
2022/03/06 03:26:13;;;;;;;28.93;19.90;;;;;;;-0.06;69.97;101130.13;5062531;28;20500;-64
2022/03/06 03:28:40;;;;;;;33.63;22.27;;;;;;;-0.01;70.23;101132.59;5060797;28;20463;-63
2022/03/06 03:31:08;;;;;;;35.60;21.63;;;;;;;0.07;69.68;101132.34;5079539;28;20479;-63
2022/03/06 03:33:34;;;;;;;33.07;22.83;;;;;;;-0.01;69.62;101133.47;5080490;28;20503;-63
2022/03/06 03:36:02;;;;;;;31.07;21.57;;;;;;;-0.01;69.80;101122.94;5075179;28;20559;-62
2022/03/06 03:38:28;;;;;;;30.00;20.40;;;;;;;-0.13;70.11;101127.75;5096313;28;20486;-63
2022/03/06 03:40:55;;;;;;;39.40;23.60;;;;;;;-0.17;70.35;101129.63;5087704;28;20466;-62
2022/03/06 03:43:22;;;;;;;31.30;21.70;;;;;;;-0.14;70.45;101131.28;5084964;28;20444;-63
2022/03/06 03:45:49;;;;;;;26.90;20.83;;;;;;;-0.19;70.66;101134.09;5105365;28;20450;-62
2022/03/06 03:48:17;;;;;;;34.40;22.40;;;;;;;-0.18;70.72;101140.19;5103395;28;20498;-62
2022/03/06 03:50:44;;;;;;;35.60;22.20;;;;;;;-0.31;70.99;101139.72;5088769;28;20493;-62
2022/03/06 03:53:11;;;;;;;32.72;22.33;;;;;;;-0.22;70.54;101142.06;5095376;28;20248;-62
2022/03/06 03:55:37;;;;;;;31.17;20.67;;;;;;;-0.13;70.45;101136.50;5087298;28;20755;-63
2022/03/06 03:58:04;;;;;;;31.50;20.90;;;;;;;-0.14;70.13;101142.69;5101796;28;20461;-62
2022/03/06 04:00:31;;;;;;;30.50;20.60;;;;;;;-0.18;70.50;101130.53;5103513;28;20451;-62
2022/03/06 04:02:57;;;;;;;28.97;20.93;;;;;;;-0.21;70.67;101144.66;5101351;28;20436;-62
2022/03/06 04:05:26;;;;;;;34.03;21.02;;;;;;;-0.13;70.40;101130.41;5089643;28;20447;-63
2022/03/06 04:07:53;;;;;;;26.63;18.80;;;;;;;-0.11;70.13;101134.69;5096806;28;20209;-62
2022/03/06 04:10:20;;;;;;;32.90;20.00;;;;;;;-0.07;70.22;101132.81;5084775;28;20444;-62
2022/03/06 04:12:47;;;;;;;33.70;21.23;;;;;;;-0.02;70.13;101144.91;5084781;28;20494;-62
2022/03/06 04:15:14;;;;;;;30.23;19.00;;;;;;;-0.01;70.07;101149.22;5094326;28;20447;-62
2022/03/06 04:17:40;;;;;;;31.70;20.30;;;;;;;0.03;69.99;101147.34;5103465;28;20439;-62
2022/03/06 04:20:08;;;;;;;31.03;20.30;;;;;;;-0.04;70.08;101144.06;5088207;28;20435;-62
2022/03/06 04:22:36;;;;;;;29.03;20.00;;;;;;;0.11;70.20;101144.50;5089167;28;20476;-62
2022/03/06 04:25:03;;;;;;;25.40;19.03;;;;;;;0.24;69.26;101150.19;5092657;28;20439;-62
2022/03/06 04:27:30;;;;;;;28.67;19.93;;;;;;;0.14;69.25;101150.50;5091745;28;20447;-62
2022/03/06 04:29:57;;;;;;;26.93;19.00;;;;;;;0.13;69.60;101147.91;5097122;28;20448;-63
2022/03/06 04:32:24;;;;;;;34.63;20.13;;;;;;;0.16;69.45;101140.78;5084015;28;20455;-63
2022/03/06 04:34:51;;;;;;;32.10;20.07;;;;;;;0.08;69.33;101144.59;5098244;28;20471;-63
2022/03/06 04:37:17;;;;;;;30.77;19.73;;;;;;;0.08;69.42;101145.44;5096368;28;20478;-63
2022/03/06 04:39:45;;;;;;;31.57;20.73;;;;;;;0.14;69.87;101144.38;5103642;28;20494;-63
2022/03/06 04:42:12;;;;;;;30.33;20.23;;;;;;;0.23;69.73;101143.22;5101437;28;20490;-63
2022/03/06 04:44:39;;;;;;;30.67;19.83;;;;;;;0.27;69.26;101156.19;5102673;28;20467;-62
2022/03/06 04:47:07;;;;;;;25.48;19.45;;;;;;;0.12;69.21;101154.06;5088779;28;20212;-62
2022/03/06 04:49:34;;;;;;;27.40;18.43;;;;;;;0.08;69.64;101155.94;5088870;28;20193;-62
2022/03/06 04:52:01;;;;;;;28.10;20.17;;;;;;;0.22;69.48;101163.38;5084043;28;20456;-61
2022/03/06 04:54:27;;;;;;;29.83;19.47;;;;;;;0.10;69.17;101155.91;5084700;28;20480;-61
2022/03/06 04:56:55;;;;;;;30.37;19.70;;;;;;;0.01;69.60;101166.75;5083020;28;20487;-61
2022/03/06 04:59:22;;;;;;;28.23;19.77;;;;;;;0.07;69.64;101171.78;5086393;28;20501;-61
2022/03/06 05:01:49;;;;;;;25.67;19.42;;;;;;;0.02;70.18;101173.69;5098381;28;20226;-63
2022/03/06 05:04:16;;;;;;;27.90;19.63;;;;;;;0.04;70.25;101162.25;5083724;28;20224;-62
2022/03/06 05:06:42;;;;;;;29.90;19.43;;;;;;;-0.02;70.17;101165.94;5083835;28;20440;-62
2022/03/06 05:09:09;;;;;;;27.95;19.70;;;;;;;-0.01;70.14;101169.41;5087562;28;20439;-63
2022/03/06 05:11:36;;;;;;;27.38;20.02;;;;;;;-0.11;69.84;101163.59;5103342;28;20241;-63
2022/03/06 05:14:04;;;;;;;31.13;19.42;;;;;;;-0.18;70.13;101172.59;5099192;28;20261;-62
2022/03/06 05:16:31;;;;;;;29.33;18.63;;;;;;;-0.17;70.15;101173.44;5082918;28;20221;-62
2022/03/06 05:18:59;;;;;;;26.88;19.08;;;;;;;-0.20;70.08;101175.25;5083113;28;20224;-62
2022/03/06 05:21:26;;;;;;;27.17;19.30;;;;;;;-0.27;70.47;101168.47;5083599;28;20198;-62
2022/03/06 05:23:53;;;;;;;29.23;19.40;;;;;;;-0.31;70.52;101177.38;5098869;28;20486;-63
2022/03/06 05:26:19;;;;;;;29.80;19.93;;;;;;;-0.31;70.69;101173.88;5098801;28;20229;-64
2022/03/06 05:28:46;;;;;;;27.80;19.60;;;;;;;-0.26;70.94;101179.84;5099574;28;20443;-63
2022/03/06 05:31:14;;;;;;;32.03;19.88;;;;;;;-0.23;70.84;101183.22;5101841;28;20497;-62
2022/03/06 05:33:41;;;;;;;36.10;20.48;;;;;;;-0.18;70.70;101179.63;5096677;28;20221;-62
2022/03/06 05:36:08;;;;;;;24.30;19.17;;;;;;;-0.17;70.73;101181.31;5103187;28;20270;-63
2022/03/06 05:38:34;;;;;;;31.80;22.37;;;;;;;-0.13;70.52;101178.56;5100373;28;20232;-62
2022/03/06 05:41:01;;;;;;;27.70;19.13;;;;;;;-0.23;70.29;101179.75;5085457;28;20479;-62
2022/03/06 05:43:27;;;;;;;28.03;20.10;;;;;;;-0.22;70.65;101189.38;5096642;28;20450;-63
2022/03/06 05:45:54;;;;;;;29.20;19.38;;;;;;;-0.17;70.65;101190.09;5086737;28;20448;-63
2022/03/06 05:48:22;;;;;;;30.47;19.37;;;;;;;-0.19;70.81;101189.28;5089061;28;20240;-63
2022/03/06 05:50:50;;;;;;;25.67;18.87;;;;;;;-0.24;70.66;101196.44;5082797;28;20456;-62
2022/03/06 05:53:16;;;;;;;29.27;20.10;;;;;;;-0.20;70.76;101198.06;5083218;28;20467;-63
2022/03/06 05:55:43;;;;;;;28.73;19.30;;;;;;;-0.23;70.64;101192.88;5082590;28;20428;-63
2022/03/06 05:58:10;;;;;;;28.60;18.83;;;;;;;-0.28;70.99;101195.69;5102206;28;20435;-63
2022/03/06 06:00:36;;;;;;;30.03;20.53;;;;;;;-0.29;71.14;101204.47;5091989;28;20451;-63
2022/03/06 06:03:03;;;;;;;29.30;20.30;;;;;;;-0.30;71.40;101207.97;5083129;28;20456;-63
2022/03/06 06:05:32;;;;;;;29.77;20.75;;;;;;;-0.34;71.72;101213.41;5082399;28;20425;-63
2022/03/06 06:07:58;;;;;;;29.60;19.37;;;;;;;-0.32;71.87;101217.69;5099277;28;20210;-62
2022/03/06 06:10:25;;;;;;;32.80;21.05;;;;;;;-0.28;71.73;101206.19;5090788;28;20470;-63
2022/03/06 06:12:52;;;;;;;27.87;20.40;;;;;;;-0.13;71.24;101207.47;5081156;28;20217;-63
2022/03/06 06:15:19;;;;;;;28.63;20.42;;;;;;;-0.20;71.27;101212.03;5082624;28;20467;-63
2022/03/06 06:17:45;;;;;;;29.75;19.70;;;;;;;-0.22;71.39;101219.13;5084524;28;20470;-64
2022/03/06 06:20:13;;;;;;;29.13;20.47;;;;;;;-0.21;71.57;101228.75;5090870;28;20193;-61
2022/03/06 06:22:41;;;;;;;31.60;21.00;;;;;;;-0.07;71.61;101216.91;5102014;28;20458;-61
2022/03/06 06:25:08;;;;;;;29.80;20.60;;;;;;;-0.06;71.05;101223.91;5102475;28;20457;-61
2022/03/06 06:27:35;;;;;;;30.30;20.50;;;;;;;0.04;70.57;101225.34;5101449;28;20451;-62
2022/03/06 06:30:02;;;;;;;28.57;21.10;;;;;;;-0.09;70.66;101221.38;5099040;28;20444;-61
2022/03/06 06:32:28;;;;;;;29.00;19.93;;;;;;;0.04;70.59;101227.13;5081616;28;20480;-61
2022/03/06 06:34:55;;;;;;;32.07;21.40;;;;;;;0.14;70.08;101220.63;5082108;28;20499;-61
2022/03/06 06:37:22;;;;;;;31.23;21.97;;;;;;;0.13;70.31;101224.19;5085851;28;20502;-61
2022/03/06 06:39:50;;;;;;;30.47;20.30;;;;;;;0.25;70.26;101230.81;5102282;28;20463;-61
2022/03/06 06:42:16;;;;;;;27.57;20.10;;;;;;;0.36;69.53;101242.69;5101374;28;20476;-60
2022/03/06 06:44:44;;;;;;;26.10;19.10;;;;;;;0.58;69.41;101231.44;5102213;28;20435;-61
2022/03/06 06:47:11;;;;;;;31.27;19.93;;;;;;;0.81;68.82;101235.03;5082491;28;20511;-60
2022/03/06 06:49:37;;;;;;;33.60;21.93;;;;;;;0.89;68.05;101244.41;5081101;28;20444;-60
2022/03/06 06:52:05;;;;;;;29.03;20.83;;;;;;;1.07;67.69;101242.88;5084531;28;20993;-60
2022/03/06 06:54:32;;;;;;;29.63;20.67;;;;;;;1.17;67.14;101246.03;5081596;28;21168;-61
2022/03/06 06:57:00;;;;;;;30.77;19.77;;;;;;;1.28;66.51;101253.53;5100683;28;20498;-61
2022/03/06 06:59:26;;;;;;;28.77;20.87;;;;;;;1.42;66.33;101253.03;5093470;28;20455;-61
2022/03/06 07:01:53;;;;;;;26.73;19.50;;;;;;;1.87;65.79;101255.72;5081746;28;20443;-61
2022/03/06 07:04:20;;;;;;;28.70;19.80;;;;;;;2.76;62.78;101255.59;5093354;28;20481;-61
2022/03/06 07:06:46;;;;;;;27.83;18.63;;;;;;;3.41;60.84;101271.28;5101519;28;20470;-66
2022/03/06 07:09:13;;;;;;;25.47;19.17;;;;;;;4.05;58.37;101264.78;5090178;28;20523;-63
2022/03/06 07:11:40;;;;;;;26.20;19.13;;;;;;;3.60;58.04;101263.34;5080987;28;20459;-64
2022/03/06 07:14:08;;;;;;;21.03;17.03;;;;;;;3.61;57.85;101265.94;5089060;28;20479;-63
2022/03/06 07:16:35;;;;;;;22.30;16.67;;;;;;;3.39;58.44;101272.19;5098855;28;20435;-61
2022/03/06 07:19:02;;;;;;;21.90;16.90;;;;;;;3.18;58.89;101267.88;5082815;28;20456;-61
2022/03/06 07:21:28;;;;;;;23.80;18.37;;;;;;;2.97;60.14;101273.16;5090201;28;20909;-60
2022/03/06 07:23:55;;;;;;;23.60;17.17;;;;;;;2.85;60.61;101276.34;5081382;28;21110;-62
2022/03/06 07:26:21;;;;;;;28.87;19.03;;;;;;;3.06;60.14;101282.47;5101144;28;20443;-61
2022/03/06 07:28:48;;;;;;;21.33;17.43;;;;;;;3.96;58.62;101280.16;5101025;28;20517;-61
2022/03/06 07:31:16;;;;;;;21.67;16.47;;;;;;;5.45;53.96;101277.06;5061276;28;20499;-64
2022/03/06 07:33:43;;;;;;;24.57;18.97;;;;;;;5.28;52.82;101274.47;5060668;28;20528;-59
2022/03/06 07:36:10;;;;;;;23.00;17.00;;;;;;;5.12;53.07;101277.06;5081875;28;20480;-59
2022/03/06 07:38:37;;;;;;;17.67;15.60;;;;;;;5.46;52.97;101283.22;5061371;28;20507;-59
2022/03/06 07:41:03;;;;;;;20.17;15.60;;;;;;;7.23;49.22;101280.28;5063503;28;20468;-61
2022/03/06 07:43:30;;;;;;;23.87;18.30;;;;;;;9.16;45.27;101277.50;5061684;28;20456;-61
2022/03/06 07:45:57;;;;;;;22.13;16.67;;;;;;;10.94;40.37;101273.56;5074997;28;20893;-61
2022/03/06 07:48:25;;;;;;;22.27;15.20;;;;;;;11.83;38.13;101285.28;5075501;28;20448;-61
2022/03/06 07:50:52;;;;;;;21.80;16.97;;;;;;;12.77;36.43;101291.03;5065705;28;20449;-61
2022/03/06 07:53:18;;;;;;;18.43;15.57;;;;;;;13.45;34.08;101296.00;5068886;28;20829;-61
2022/03/06 07:55:45;;;;;;;20.10;14.87;;;;;;;14.02;33.83;101292.84;5061763;28;20476;-62
2022/03/06 07:58:12;;;;;;;16.47;14.50;;;;;;;13.85;32.58;101303.28;5064584;28;20468;-62
2022/03/06 08:00:38;;;;;;;22.43;17.20;;;;;;;12.16;35.33;101313.06;5073280;28;20484;-61
2022/03/06 08:03:05;;;;;;;20.00;16.70;;;;;;;12.84;35.47;101306.63;5060752;28;20479;-61
2022/03/06 08:05:33;;;;;;;17.00;14.53;;;;;;;14.24;32.80;101306.06;5060547;28;20463;-61
2022/03/06 08:08:00;;;;;;;16.70;14.37;;;;;;;14.42;32.13;101305.38;5070184;28;20464;-61
2022/03/06 08:10:27;;;;;;;16.30;14.60;;;;;;;14.18;32.21;101309.28;5064669;28;20452;-61
2022/03/06 08:12:53;;;;;;;14.90;12.80;;;;;;;11.41;36.52;101311.00;5070571;28;20484;-61
2022/03/06 08:15:20;;;;;;;18.90;14.70;;;;;;;9.47;40.74;101303.88;5059810;28;20478;-61
2022/03/06 08:17:47;;;;;;;16.77;14.80;;;;;;;7.50;45.10;101321.16;5063724;28;20441;-61
2022/03/06 08:20:14;;;;;;;18.07;13.70;;;;;;;5.62;50.72;101321.28;5074194;28;20444;-60
2022/03/06 08:22:42;;;;;;;21.63;13.90;;;;;;;5.60;51.27;101324.94;5065562;28;20449;-61
2022/03/06 08:25:09;;;;;;;20.37;14.03;;;;;;;5.01;52.58;101319.16;5063227;28;20499;-60
2022/03/06 08:27:36;;;;;;;16.17;14.03;;;;;;;4.42;54.86;101335.31;5074979;28;20988;-60
2022/03/06 08:30:04;;;;;;;19.60;15.37;;;;;;;4.53;55.24;101334.78;5067003;28;20453;-60
2022/03/06 08:32:32;;;;;;;25.70;16.43;;;;;;;4.40;56.05;101339.81;5077443;28;20452;-60
2022/03/06 08:34:58;;;;;;;17.93;14.20;;;;;;;3.80;57.87;101342.63;5073655;28;20549;-60
2022/03/06 08:37:25;;;;;;;18.00;14.60;;;;;;;3.80;58.15;101342.63;5078280;28;20487;-61
2022/03/06 08:39:53;;;;;;;19.10;14.60;;;;;;;3.95;58.35;101344.56;5067121;28;20951;-60
2022/03/06 08:42:20;;;;;;;17.83;13.53;;;;;;;3.95;58.71;101343.72;5081087;28;20487;-60
2022/03/06 08:44:47;;;;;;;18.53;14.93;;;;;;;4.10;58.20;101336.84;5065175;28;20468;-60
2022/03/06 08:47:13;;;;;;;15.93;14.27;;;;;;;3.48;59.80;101349.38;5078144;28;20432;-60
2022/03/06 08:49:40;;;;;;;18.53;14.00;;;;;;;3.42;61.09;101339.94;5074379;28;20698;-60
2022/03/06 08:52:08;;;;;;;19.37;13.90;;;;;;;3.19;61.20;101333.88;5076403;28;20444;-60
2022/03/06 08:54:34;;;;;;;22.27;14.77;;;;;;;3.09;62.09;101331.66;5078641;28;20570;-61
2022/03/06 08:57:03;;;;;;;16.30;13.50;;;;;;;3.28;62.02;101340.53;5077058;28;20563;-61
2022/03/06 08:59:29;;;;;;;20.37;15.80;;;;;;;3.83;61.03;101331.06;5082344;28;20502;-61
2022/03/06 09:01:56;;;;;;;17.87;14.73;;;;;;;4.13;60.10;101334.94;5077420;28;20558;-61
2022/03/06 09:04:23;;;;;;;20.40;14.90;;;;;;;4.24;59.58;101339.69;5072058;28;20456;-61
2022/03/06 09:06:51;;;;;;;18.90;13.70;;;;;;;4.37;59.54;101336.47;5069103;28;20535;-61
2022/03/06 09:09:17;;;;;;;21.17;12.77;;;;;;;4.10;59.29;101343.00;5082160;28;20506;-61
2022/03/06 09:11:45;;;;;;;18.17;13.40;;;;;;;4.25;59.69;101340.56;5078080;28;20522;-61
2022/03/06 09:14:13;;;;;;;21.30;14.60;;;;;;;4.61;58.49;101345.00;5060900;28;20461;-61
2022/03/06 09:16:50;;;;;;;15.57;13.27;;;;;;;4.93;57.80;101345.19;5068309;28;20444;-61
2022/03/06 09:19:17;;;;;;;17.33;12.17;;;;;;;4.67;58.28;101339.38;5044425;28;20539;-62
2022/03/06 09:21:44;;;;;;;14.37;12.33;;;;;;;4.46;58.65;101351.91;5052187;28;20452;-62
2022/03/06 09:24:11;;;;;;;15.67;12.77;;;;;;;4.62;58.63;101338.78;5060552;28;21033;-61
2022/03/06 09:26:38;;;;;;;16.50;12.77;;;;;;;4.45;59.31;101343.09;5060048;28;20807;-62
2022/03/06 09:29:05;;;;;;;17.83;11.97;;;;;;;4.72;58.42;101343.56;5060253;28;20429;-61
2022/03/06 09:31:33;;;;;;;13.37;10.63;;;;;;;4.23;59.81;101345.91;5061022;28;20449;-61
2022/03/06 09:34:00;;;;;;;14.10;10.73;;;;;;;4.72;59.06;101340.03;5059996;28;20969;-61
2022/03/06 09:36:27;;;;;;;15.00;10.90;;;;;;;4.94;58.65;101341.63;5059998;28;20497;-62
2022/03/06 09:38:53;;;;;;;13.40;11.10;;;;;;;5.17;57.73;101343.09;5080494;28;20479;-61
2022/03/06 09:41:26;;;;;;;11.33;10.00;;;;;;;4.56;58.46;101350.53;5085528;28;20454;-61
2022/03/06 09:43:55;;;;;;;15.03;9.67;;;;;;;4.75;59.15;101347.81;5100427;28;20929;-61
2022/03/06 09:46:22;;;;;;;12.80;10.13;;;;;;;4.41;59.71;101364.50;5101093;28;20434;-61
2022/03/06 09:49:02;;;;;;;9.70;8.70;;;;;;;4.36;59.58;101361.22;5083966;28;20484;-62
2022/03/06 09:51:33;;;;;;;9.80;8.80;;;;;;;4.36;59.85;101362.09;5080747;28;20427;-60
2022/03/06 09:53:59;;;;;;;12.03;9.20;;;;;;;4.53;59.00;101369.19;5079927;28;20451;-61
2022/03/06 09:56:26;;;;;;;11.47;8.93;;;;;;;4.10;59.63;101365.97;5078598;28;20483;-61
2022/03/06 09:58:53;;;;;;;11.33;9.13;;;;;;;4.37;59.54;101369.09;5086526;28;20509;-61
2022/03/06 10:01:19;;;;;;;12.33;9.00;;;;;;;3.96;60.12;101366.59;5087274;28;21085;-61
2022/03/06 10:03:46;;;;;;;11.27;9.30;;;;;;;4.56;59.41;101365.56;5079031;28;20509;-61
2022/03/06 10:06:14;;;;;;;12.20;8.33;;;;;;;4.50;58.41;101364.94;5081146;28;20436;-61
2022/03/06 10:08:41;;;;;;;13.87;8.10;;;;;;;4.42;59.51;101367.06;5079610;28;20648;-61
2022/03/06 10:11:10;;;;;;;8.73;7.53;;;;;;;4.47;59.19;101365.06;5081314;28;20445;-61
2022/03/06 10:13:38;;;;;;;10.67;8.93;;;;;;;4.96;58.25;101356.50;5079146;28;20440;-61
2022/03/06 10:16:08;;;;;;;10.80;8.43;;;;;;;4.98;58.06;101356.41;5077190;28;20507;-61
2022/03/06 10:18:36;;;;;;;9.80;7.57;;;;;;;4.78;57.93;101357.44;5078370;28;20451;-62
2022/03/06 10:21:10;;;;;;;8.20;7.40;;;;;;;4.77;57.62;101353.06;5078574;28;20457;-61
2022/03/06 10:23:38;;;;;;;10.00;6.87;;;;;;;4.60;57.88;101364.47;5079057;28;20488;-61
2022/03/06 10:26:06;;;;;;;11.73;7.73;;;;;;;4.65;57.77;101367.75;5078848;28;20440;-61
2022/03/06 10:28:43;;;;;;;8.10;6.80;;;;;;;4.31;57.93;101362.28;5095164;28;20447;-61
2022/03/06 10:31:10;;;;;;;9.47;7.73;;;;;;;4.44;58.13;101369.66;5085279;28;20458;-61
2022/03/06 10:33:37;;;;;;;7.67;6.80;;;;;;;4.99;57.04;101360.78;5082887;28;20486;-60
2022/03/06 10:36:04;;;;;;;8.87;7.97;;;;;;;5.22;56.95;101354.31;5090062;28;20537;-60
2022/03/06 10:38:32;;;;;;;9.60;6.87;;;;;;;5.53;55.43;101355.38;5088287;28;21067;-61
2022/03/06 10:41:02;;;;;;;9.30;7.20;;;;;;;5.41;55.40;101362.16;5077256;28;20822;-61
2022/03/06 10:43:30;;;;;;;10.63;7.83;;;;;;;5.66;54.66;101364.41;5093037;28;20862;-60
2022/03/06 10:46:08;;;;;;;9.10;7.03;;;;;;;5.25;55.31;101357.66;5083010;28;20684;-60
2022/03/06 10:48:35;;;;;;;9.03;7.40;;;;;;;5.26;55.11;101359.38;5086170;28;20451;-60
2022/03/06 10:51:04;;;;;;;9.33;7.50;;;;;;;5.34;55.18;101358.13;5066542;28;20503;-60
2022/03/06 10:53:30;;;;;;;7.73;6.63;;;;;;;5.38;54.22;101357.03;5091785;28;20463;-60
2022/03/06 10:56:09;;;;;;;8.80;7.23;;;;;;;5.32;54.23;101367.97;5075720;28;21077;-60
2022/03/06 10:58:37;;;;;;;9.00;6.87;;;;;;;5.23;54.54;101350.75;5085708;28;20456;-60
2022/03/06 11:01:04;;;;;;;9.03;7.50;;;;;;;5.59;53.36;101360.34;5077171;28;20511;-60
2022/03/06 11:03:32;;;;;;;11.07;7.03;;;;;;;5.83;51.83;101353.75;5078575;28;20447;-60
2022/03/06 11:05:59;;;;;;;8.13;7.30;;;;;;;5.79;52.35;101354.84;5078774;28;20439;-60
2022/03/06 11:08:26;;;;;;;10.70;7.73;;;;;;;5.41;53.18;101356.88;5089086;28;21242;-60
2022/03/06 11:10:53;;;;;;;8.67;6.40;;;;;;;5.56;52.30;101356.06;5078517;28;20467;-60
2022/03/06 11:13:21;;;;;;;8.43;7.50;;;;;;;6.08;51.14;101347.13;5083411;28;21301;-60
2022/03/06 11:15:49;;;;;;;7.83;7.03;;;;;;;6.43;49.86;101348.75;5080343;28;20491;-60